createdAt,value
2023-02-11T00:00:27.827Z,-1.10
2023-02-11T00:02:54.357Z,-1.13
2023-02-11T00:05:20.905Z,-1.14
2023-02-11T00:07:47.540Z,-1.11
2023-02-11T00:10:14.187Z,-1.14
2023-02-11T00:12:40.897Z,-1.14
2023-02-11T00:15:08.209Z,-1.13
2023-02-11T00:17:34.821Z,-1.09
2023-02-11T00:20:02.721Z,-1.09
2023-02-11T00:22:29.314Z,-1.09
2023-02-11T00:24:57.119Z,-1.11
2023-02-11T00:27:23.753Z,-1.13
2023-02-11T00:29:50.431Z,-1.15
2023-02-11T00:32:16.970Z,-1.12
2023-02-11T00:34:43.577Z,-1.12
2023-02-11T00:37:12.113Z,-1.08
2023-02-11T00:39:38.738Z,-1.05
2023-02-11T00:42:05.411Z,-1.02
2023-02-11T00:44:32.008Z,-1.04
2023-02-11T00:46:58.541Z,-0.99
2023-02-11T00:49:25.407Z,-1.00
2023-02-11T00:51:52.032Z,-1.03
2023-02-11T00:54:18.593Z,-0.99
2023-02-11T00:56:45.185Z,-0.96
2023-02-11T00:59:12.009Z,-0.94
2023-02-11T01:01:38.722Z,-0.99
2023-02-11T01:04:05.360Z,-0.94
2023-02-11T01:06:31.965Z,-0.95
2023-02-11T01:08:58.549Z,-0.94
2023-02-11T01:11:25.202Z,-0.94
2023-02-11T01:13:51.890Z,-0.92
2023-02-11T01:16:20.074Z,-0.89
2023-02-11T01:18:47.544Z,-0.88
2023-02-11T01:21:14.888Z,-0.91
2023-02-11T01:23:41.522Z,-0.92
2023-02-11T01:26:08.163Z,-0.97
2023-02-11T01:28:34.854Z,-0.93
2023-02-11T01:31:03.312Z,-0.94
2023-02-11T01:33:30.507Z,-0.92
2023-02-11T01:36:01.832Z,-0.93
2023-02-11T01:38:28.405Z,-0.88
2023-02-11T01:41:01.084Z,-0.85
2023-02-11T01:43:37.231Z,-0.84
2023-02-11T01:46:26.040Z,-0.81
2023-02-11T01:49:01.340Z,-0.77
2023-02-11T01:51:34.433Z,-0.76
2023-02-11T01:54:22.484Z,-0.75
2023-02-11T01:57:13.685Z,-0.73
2023-02-11T01:59:52.784Z,-0.73
2023-02-11T02:02:26.572Z,-0.80
2023-02-11T02:04:58.715Z,-0.87
2023-02-11T02:07:36.342Z,-0.95
2023-02-11T02:10:17.343Z,-0.89
2023-02-11T02:12:43.971Z,-0.86
2023-02-11T02:15:30.695Z,-0.81
2023-02-11T02:18:03.156Z,-0.81
2023-02-11T02:20:38.706Z,-0.80
2023-02-11T02:23:20.849Z,-0.80
2023-02-11T02:25:59.686Z,-0.77
2023-02-11T02:28:47.953Z,-0.75
2023-02-11T02:31:43.571Z,-0.77
2023-02-11T02:34:21.726Z,-0.78
2023-02-11T02:37:14.381Z,-0.80
2023-02-11T02:39:41.029Z,-0.79
2023-02-11T02:42:08.572Z,-0.79
2023-02-11T02:44:35.241Z,-0.77
2023-02-11T02:47:01.846Z,-0.76
2023-02-11T02:49:28.452Z,-0.73
2023-02-11T02:51:58.060Z,-0.70
2023-02-11T02:54:48.280Z,-0.75
2023-02-11T02:57:26.617Z,-0.74
2023-02-11T03:00:01.978Z,-0.74
2023-02-11T03:02:48.105Z,-0.75
2023-02-11T03:05:36.292Z,-0.76
2023-02-11T03:08:18.989Z,-0.74
2023-02-11T03:10:49.746Z,-0.71
2023-02-11T03:13:20.666Z,-0.69
2023-02-11T03:15:52.457Z,-0.65
2023-02-11T03:18:24.466Z,-0.62
2023-02-11T03:20:54.379Z,-0.62
2023-02-11T03:23:29.176Z,-0.60
2023-02-11T03:26:43.401Z,-0.59
2023-02-11T03:29:32.295Z,-0.55
2023-02-11T03:32:28.118Z,-0.58
2023-02-11T03:35:04.077Z,-0.55
2023-02-11T03:37:40.899Z,-0.56
2023-02-11T03:40:17.631Z,-0.53
2023-02-11T03:42:51.236Z,-0.51
2023-02-11T03:45:21.854Z,-0.49
2023-02-11T03:47:56.269Z,-0.47
2023-02-11T03:50:24.562Z,-0.47
2023-02-11T03:52:51.794Z,-0.44
2023-02-11T03:55:20.904Z,-0.46
2023-02-11T03:57:48.154Z,-0.46
2023-02-11T04:00:15.578Z,-0.41
2023-02-11T04:02:44.289Z,-0.39
2023-02-11T04:05:15.720Z,-0.37
2023-02-11T04:07:42.296Z,-0.35
2023-02-11T04:10:09.030Z,-0.35
2023-02-11T04:12:35.622Z,-0.37
2023-02-11T04:15:02.139Z,-0.36
2023-02-11T04:17:28.653Z,-0.33
2023-02-11T04:19:55.269Z,-0.33
2023-02-11T04:22:21.892Z,-0.33
2023-02-11T04:24:48.449Z,-0.37
2023-02-11T04:27:15.100Z,-0.38
2023-02-11T04:29:41.696Z,-0.37
2023-02-11T04:32:09.252Z,-0.38
2023-02-11T04:34:35.984Z,-0.40
2023-02-11T04:37:02.905Z,-0.41
2023-02-11T04:39:29.510Z,-0.38
2023-02-11T04:41:56.126Z,-0.38
2023-02-11T04:44:22.918Z,-0.36
2023-02-11T04:46:49.460Z,-0.34
2023-02-11T04:49:17.812Z,-0.32
2023-02-11T04:51:49.560Z,-0.33
2023-02-11T04:54:16.547Z,-0.32
2023-02-11T04:56:43.309Z,-0.32
2023-02-11T04:59:09.911Z,-0.33
2023-02-11T05:01:36.498Z,-0.31
2023-02-11T05:04:03.198Z,-0.37
2023-02-11T05:06:29.866Z,-0.34
2023-02-11T05:08:56.542Z,-0.32
2023-02-11T05:11:25.473Z,-0.30
2023-02-11T05:13:52.823Z,-0.30
2023-02-11T05:16:19.591Z,-0.33
2023-02-11T05:18:46.297Z,-0.34
2023-02-11T05:21:16.002Z,-0.34
2023-02-11T05:23:42.807Z,-0.36
2023-02-11T05:26:09.979Z,-0.35
2023-02-11T05:28:36.697Z,-0.41
2023-02-11T05:31:04.026Z,-0.36
2023-02-11T05:33:30.888Z,-0.32
2023-02-11T05:36:02.740Z,-0.26
2023-02-11T05:38:29.332Z,-0.25
2023-02-11T05:40:56.224Z,-0.24
2023-02-11T05:43:23.180Z,-0.23
2023-02-11T05:45:50.033Z,-0.20
2023-02-11T05:48:17.845Z,-0.21
2023-02-11T05:50:44.928Z,-0.20
2023-02-11T05:53:12.266Z,-0.19
2023-02-11T05:55:39.005Z,-0.20
2023-02-11T05:58:06.436Z,-0.18
2023-02-11T06:00:32.964Z,-0.16
2023-02-11T06:02:59.759Z,-0.15
2023-02-11T06:05:26.348Z,-0.12
2023-02-11T06:07:53.301Z,-0.11
2023-02-11T06:10:20.028Z,-0.10
2023-02-11T06:12:46.653Z,-0.09
2023-02-11T06:15:13.244Z,-0.08
2023-02-11T06:17:39.931Z,-0.08
2023-02-11T06:20:08.547Z,-0.07
2023-02-11T06:22:35.325Z,-0.07
2023-02-11T06:25:02.352Z,-0.10
2023-02-11T06:27:29.705Z,-0.12
2023-02-11T06:29:56.350Z,-0.12
2023-02-11T06:32:43.364Z,-0.12
2023-02-11T06:35:11.888Z,-0.07
2023-02-11T06:37:39.712Z,-0.06
2023-02-11T06:40:06.932Z,-0.06
2023-02-11T06:42:34.532Z,-0.06
2023-02-11T06:45:01.148Z,-0.09
2023-02-11T06:47:27.730Z,-0.07
2023-02-11T06:49:54.275Z,-0.19
2023-02-11T06:52:20.900Z,-0.23
2023-02-11T06:54:47.519Z,-0.24
2023-02-11T06:57:14.130Z,-0.26
2023-02-11T06:59:41.401Z,-0.22
2023-02-11T07:02:10.382Z,-0.19
2023-02-11T07:04:37.003Z,-0.16
2023-02-11T07:07:03.641Z,-0.10
2023-02-11T07:09:30.387Z,-0.09
2023-02-11T07:11:57.180Z,-0.07
2023-02-11T07:14:23.984Z,-0.08
2023-02-11T07:16:50.500Z,-0.04
2023-02-11T07:19:17.144Z,0.02
2023-02-11T07:21:43.782Z,0.04
2023-02-11T07:24:11.407Z,0.10
2023-02-11T07:26:38.473Z,0.12
2023-02-11T07:29:05.440Z,0.16
2023-02-11T07:31:32.533Z,0.19
2023-02-11T07:34:01.905Z,0.18
2023-02-11T07:36:30.347Z,0.20
2023-02-11T07:38:56.895Z,0.23
2023-02-11T07:41:25.208Z,0.24
2023-02-11T07:43:52.572Z,0.26
2023-02-11T07:46:27.321Z,0.29
2023-02-11T07:48:55.046Z,0.32
2023-02-11T07:51:25.106Z,0.25
2023-02-11T07:53:52.160Z,0.33
2023-02-11T07:56:20.744Z,0.34
2023-02-11T07:58:48.019Z,0.36
2023-02-11T08:01:18.902Z,0.40
2023-02-11T08:03:45.604Z,0.40
2023-02-11T08:06:14.376Z,0.43
2023-02-11T08:08:41.732Z,0.46
2023-02-11T08:11:14.858Z,0.52
2023-02-11T08:13:41.495Z,0.56
2023-02-11T08:16:09.115Z,0.60
2023-02-11T08:18:36.603Z,0.63
2023-02-11T08:21:07.676Z,0.69
2023-02-11T08:23:35.707Z,0.74
2023-02-11T08:26:04.377Z,0.75
2023-02-11T08:28:31.209Z,0.79
2023-02-11T08:30:58.219Z,0.82
2023-02-11T08:33:24.904Z,0.89
2023-02-11T08:35:51.535Z,0.96
2023-02-11T08:38:18.131Z,1.04
2023-02-11T08:40:44.714Z,1.07
2023-02-11T08:43:11.275Z,1.08
2023-02-11T08:45:37.877Z,1.18
2023-02-11T08:48:04.568Z,1.22
2023-02-11T08:50:32.286Z,1.28
2023-02-11T08:52:58.862Z,1.34
2023-02-11T08:55:25.488Z,1.32
2023-02-11T08:57:52.023Z,1.36
2023-02-11T09:00:19.258Z,1.45
2023-02-11T09:02:45.851Z,1.56
2023-02-11T09:05:12.747Z,1.64
2023-02-11T09:07:39.366Z,1.67
2023-02-11T09:10:06.548Z,1.72
2023-02-11T09:12:33.094Z,1.75
2023-02-11T09:14:59.750Z,1.80
2023-02-11T09:17:26.375Z,1.91
2023-02-11T09:19:52.915Z,1.95
2023-02-11T09:22:19.441Z,2.02
2023-02-11T09:24:46.066Z,2.11
2023-02-11T09:27:12.604Z,2.16
2023-02-11T09:29:39.189Z,2.19
2023-02-11T09:32:08.496Z,2.24
2023-02-11T09:34:36.532Z,2.24
2023-02-11T09:37:03.090Z,2.21
2023-02-11T09:39:29.955Z,2.31
2023-02-11T09:42:14.188Z,2.39
2023-02-11T09:44:44.194Z,2.41
2023-02-11T09:47:23.652Z,2.50
2023-02-11T09:50:04.307Z,2.42
2023-02-11T09:52:37.401Z,2.55
2023-02-11T09:55:25.829Z,2.41
2023-02-11T09:57:52.476Z,2.51
2023-02-11T10:00:27.578Z,2.53
2023-02-11T10:02:57.205Z,2.62
2023-02-11T10:05:47.876Z,2.58
2023-02-11T10:08:28.624Z,2.52
2023-02-11T10:11:08.653Z,2.63
2023-02-11T10:14:04.146Z,2.74
2023-02-11T10:16:52.387Z,2.81
2023-02-11T10:19:42.117Z,2.94
2023-02-11T10:22:27.601Z,2.96
2023-02-11T10:25:00.563Z,3.03
2023-02-11T10:27:35.866Z,3.10
2023-02-11T10:30:19.180Z,3.20
2023-02-11T10:32:53.872Z,3.11
2023-02-11T10:35:22.967Z,3.11
2023-02-11T10:37:49.777Z,3.17
2023-02-11T10:40:25.430Z,3.32
2023-02-11T10:42:55.892Z,3.42
2023-02-11T10:45:28.309Z,3.44
2023-02-11T10:47:55.438Z,3.40
2023-02-11T10:50:28.249Z,3.23
2023-02-11T10:53:11.449Z,3.41
2023-02-11T10:55:38.234Z,3.44
2023-02-11T10:58:05.832Z,3.52
2023-02-11T11:00:40.786Z,3.70
2023-02-11T11:03:29.382Z,3.94
2023-02-11T11:06:00.577Z,4.12
2023-02-11T11:08:46.715Z,4.25
2023-02-11T11:11:16.621Z,4.31
2023-02-11T11:13:52.496Z,4.29
2023-02-11T11:16:21.109Z,4.37
2023-02-11T11:19:07.881Z,4.15
2023-02-11T11:21:49.644Z,4.35
2023-02-11T11:24:40.028Z,4.40
2023-02-11T11:27:07.092Z,4.46
2023-02-11T11:30:01.332Z,4.28
2023-02-11T11:32:33.458Z,4.18
2023-02-11T11:35:03.571Z,4.15
2023-02-11T11:37:31.785Z,4.01
2023-02-11T11:40:13.610Z,3.99
2023-02-11T11:42:40.494Z,3.92
2023-02-11T11:45:16.288Z,3.80
2023-02-11T11:47:47.413Z,3.75
2023-02-11T11:50:25.932Z,4.05
2023-02-11T11:53:05.318Z,4.22
2023-02-11T11:55:50.148Z,4.31
2023-02-11T11:58:22.227Z,4.47
2023-02-11T12:01:05.446Z,4.40
2023-02-11T12:04:15.249Z,4.31
2023-02-11T12:07:06.398Z,4.40
2023-02-11T12:09:58.652Z,4.26
2023-02-11T12:12:53.513Z,4.19
2023-02-11T12:15:32.020Z,4.06
2023-02-11T12:18:21.951Z,3.90
2023-02-11T12:21:17.767Z,3.97
2023-02-11T12:23:58.425Z,3.84
2023-02-11T12:26:43.539Z,4.02
2023-02-11T12:29:44.072Z,4.10
2023-02-11T12:32:36.699Z,4.13
2023-02-11T12:35:22.466Z,4.03
2023-02-11T12:38:08.377Z,4.04
2023-02-11T12:40:45.783Z,4.11
2023-02-11T12:43:25.637Z,4.20
2023-02-11T12:46:22.112Z,4.26
2023-02-11T12:49:19.488Z,4.22
2023-02-11T12:51:46.026Z,4.19
2023-02-11T12:54:31.750Z,4.23
2023-02-11T12:57:31.146Z,4.25
2023-02-11T13:00:06.526Z,4.25
2023-02-11T13:02:54.977Z,4.39
2023-02-11T13:05:30.285Z,4.53
2023-02-11T13:08:11.396Z,4.33
2023-02-11T13:10:41.404Z,4.14
2023-02-11T13:13:19.927Z,4.27
2023-02-11T13:16:08.606Z,4.41
2023-02-11T13:18:51.458Z,4.30
2023-02-11T13:21:56.087Z,4.23
2023-02-11T13:24:45.745Z,4.33
2023-02-11T13:27:22.953Z,4.45
2023-02-11T13:30:04.410Z,4.41
2023-02-11T13:32:56.247Z,4.46
2023-02-11T13:35:30.960Z,4.44
2023-02-11T13:38:00.141Z,4.55
2023-02-11T13:40:45.776Z,4.60
2023-02-11T13:43:22.393Z,4.48
2023-02-11T13:45:51.495Z,4.46
2023-02-11T13:48:22.991Z,4.47
2023-02-11T13:50:53.428Z,4.47
2023-02-11T13:53:20.688Z,4.57
2023-02-11T13:55:51.943Z,4.47
2023-02-11T13:58:27.544Z,4.54
2023-02-11T14:00:54.767Z,4.29
2023-02-11T14:03:42.141Z,4.20
2023-02-11T14:06:27.514Z,4.16
2023-02-11T14:09:14.280Z,4.32
2023-02-11T14:11:41.547Z,4.40
2023-02-11T14:14:21.799Z,4.36
2023-02-11T14:17:14.502Z,4.25
2023-02-11T14:19:43.921Z,4.16
2023-02-11T14:22:10.517Z,4.09
2023-02-11T14:24:37.000Z,4.16
2023-02-11T14:27:11.702Z,4.03
2023-02-11T14:29:50.976Z,4.15
2023-02-11T14:32:23.580Z,4.14
2023-02-11T14:35:01.099Z,4.11
2023-02-11T14:37:57.882Z,4.20
2023-02-11T14:40:38.543Z,4.27
2023-02-11T14:43:13.805Z,4.24
2023-02-11T14:45:50.198Z,4.30
2023-02-11T14:48:27.366Z,4.18
2023-02-11T14:51:13.852Z,4.24
2023-02-11T14:53:46.629Z,4.20
2023-02-11T14:56:26.480Z,4.19
2023-02-11T14:58:54.586Z,4.26
2023-02-11T15:01:35.602Z,4.29
2023-02-11T15:04:05.493Z,4.32
2023-02-11T15:06:42.603Z,4.25
2023-02-11T15:09:39.966Z,4.14
2023-02-11T15:12:17.221Z,4.13
2023-02-11T15:14:48.796Z,3.91
2023-02-11T15:17:19.289Z,3.87
2023-02-11T15:19:49.821Z,3.94
2023-02-11T15:22:20.182Z,4.00
2023-02-11T15:24:59.074Z,4.06
2023-02-11T15:27:25.841Z,4.10
2023-02-11T15:29:52.886Z,4.14
2023-02-11T15:32:21.766Z,3.92
2023-02-11T15:34:51.358Z,4.05
2023-02-11T15:37:32.300Z,4.05
2023-02-11T15:40:16.498Z,3.94
2023-02-11T15:42:56.247Z,3.90
2023-02-11T15:45:34.499Z,4.02
2023-02-11T15:48:15.245Z,4.04
2023-02-11T15:50:48.494Z,3.88
2023-02-11T15:53:43.359Z,3.87
2023-02-11T15:56:24.218Z,3.91
2023-02-11T15:58:53.873Z,3.97
2023-02-11T16:01:34.033Z,3.79
2023-02-11T16:04:02.309Z,3.80
2023-02-11T16:06:39.416Z,3.77
2023-02-11T16:09:10.191Z,3.85
2023-02-11T16:11:45.976Z,3.91
2023-02-11T16:14:42.254Z,3.96
2023-02-11T16:17:23.499Z,3.92
2023-02-11T16:19:51.656Z,3.95
2023-02-11T16:22:23.114Z,3.93
2023-02-11T16:24:53.055Z,3.93
2023-02-11T16:27:39.842Z,3.92
2023-02-11T16:30:22.301Z,3.91
2023-02-11T16:32:49.016Z,3.90
2023-02-11T16:35:15.639Z,3.86
2023-02-11T16:37:42.207Z,3.89
2023-02-11T16:40:09.857Z,3.88
2023-02-11T16:42:36.428Z,3.85
2023-02-11T16:45:03.389Z,3.79
2023-02-11T16:47:31.226Z,3.82
2023-02-11T16:49:58.960Z,3.80
2023-02-11T16:52:25.696Z,3.80
2023-02-11T16:54:52.385Z,3.75
2023-02-11T16:57:26.959Z,3.76
2023-02-11T16:59:54.735Z,3.70
2023-02-11T17:02:35.988Z,3.70
2023-02-11T17:05:03.629Z,3.70
2023-02-11T17:07:30.872Z,3.71
2023-02-11T17:09:57.935Z,3.72
2023-02-11T17:12:27.308Z,3.70
2023-02-11T17:14:54.162Z,3.71
2023-02-11T17:17:23.222Z,3.66
2023-02-11T17:19:50.289Z,3.66
2023-02-11T17:22:16.868Z,3.63
2023-02-11T17:24:43.422Z,3.64
2023-02-11T17:27:11.848Z,3.63
2023-02-11T17:29:38.443Z,3.65
2023-02-11T17:32:05.201Z,3.63
2023-02-11T17:34:32.470Z,3.62
2023-02-11T17:37:00.271Z,3.64
2023-02-11T17:39:27.607Z,3.62
2023-02-11T17:41:54.249Z,3.61
2023-02-11T17:44:20.870Z,3.60
2023-02-11T17:46:47.454Z,3.59
2023-02-11T17:49:14.080Z,3.57
2023-02-11T17:51:40.835Z,3.55
2023-02-11T17:54:13.096Z,3.53
2023-02-11T17:56:39.930Z,3.51
2023-02-11T17:59:08.568Z,3.52
2023-02-11T18:01:37.752Z,3.47
2023-02-11T18:04:05.526Z,3.44
2023-02-11T18:06:33.809Z,3.45
2023-02-11T18:09:02.473Z,3.45
2023-02-11T18:11:30.958Z,3.45
2023-02-11T18:14:02.003Z,3.46
2023-02-11T18:16:30.025Z,3.44
2023-02-11T18:18:58.600Z,3.45
2023-02-11T18:21:25.543Z,3.42
2023-02-11T18:23:52.630Z,3.43
2023-02-11T18:26:21.197Z,3.44
2023-02-11T18:28:48.344Z,3.44
2023-02-11T18:31:15.963Z,3.42
2023-02-11T18:33:42.798Z,3.41
2023-02-11T18:36:13.800Z,3.39
2023-02-11T18:38:41.344Z,3.39
2023-02-11T18:41:08.209Z,3.37
2023-02-11T18:43:35.383Z,3.36
2023-02-11T18:46:06.283Z,3.34
2023-02-11T18:48:33.048Z,3.34
2023-02-11T18:50:59.655Z,3.35
2023-02-11T18:53:26.383Z,3.33
2023-02-11T18:55:54.194Z,3.31
2023-02-11T18:58:24.026Z,3.30
2023-02-11T19:00:50.903Z,3.28
2023-02-11T19:03:17.578Z,3.26
2023-02-11T19:05:46.876Z,3.26
2023-02-11T19:08:14.129Z,3.25
2023-02-11T19:10:45.960Z,3.24
2023-02-11T19:13:13.611Z,3.23
2023-02-11T19:15:45.928Z,3.21
2023-02-11T19:18:14.259Z,3.20
2023-02-11T19:20:42.397Z,3.20
2023-02-11T19:23:10.130Z,3.17
2023-02-11T19:25:37.332Z,3.16
2023-02-11T19:28:03.957Z,3.07
2023-02-11T19:30:30.776Z,3.09
2023-02-11T19:32:57.868Z,3.13
2023-02-11T19:35:25.227Z,3.12
2023-02-11T19:37:51.957Z,3.10
2023-02-11T19:40:19.234Z,3.07
2023-02-11T19:42:45.847Z,3.10
2023-02-11T19:45:12.683Z,3.12
2023-02-11T19:47:39.426Z,3.13
2023-02-11T19:50:06.790Z,3.12
2023-02-11T19:52:33.404Z,3.11
2023-02-11T19:55:00.719Z,3.11
2023-02-11T19:57:27.273Z,3.07
2023-02-11T19:59:55.027Z,3.10
2023-02-11T20:02:21.893Z,3.06
2023-02-11T20:04:48.586Z,3.04
2023-02-11T20:07:15.217Z,3.06
2023-02-11T20:09:42.678Z,3.09
2023-02-11T20:12:10.049Z,3.07
2023-02-11T20:14:36.912Z,3.01
2023-02-11T20:17:03.830Z,3.03
2023-02-11T20:19:30.701Z,3.04
2023-02-11T20:21:57.424Z,3.06
2023-02-11T20:24:25.180Z,3.08
2023-02-11T20:26:55.951Z,3.08
2023-02-11T20:29:24.572Z,3.08
2023-02-11T20:31:51.439Z,3.04
2023-02-11T20:34:18.740Z,3.06
2023-02-11T20:36:51.978Z,3.06
2023-02-11T20:39:22.183Z,2.97
2023-02-11T20:41:49.704Z,2.95
2023-02-11T20:44:16.352Z,2.95
2023-02-11T20:46:47.839Z,2.94
2023-02-11T20:49:18.861Z,2.94
2023-02-11T20:51:45.781Z,2.96
2023-02-11T20:54:14.369Z,2.95
2023-02-11T20:56:41.056Z,2.94
2023-02-11T20:59:07.670Z,2.93
2023-02-11T21:01:37.363Z,2.92
2023-02-11T21:04:07.258Z,2.86
2023-02-11T21:06:39.465Z,2.89
2023-02-11T21:09:08.164Z,2.91
2023-02-11T21:11:35.459Z,2.90
2023-02-11T21:14:02.819Z,2.92
2023-02-11T21:16:31.676Z,2.94
2023-02-11T21:18:58.433Z,2.95
2023-02-11T21:21:25.009Z,2.94
2023-02-11T21:23:51.909Z,2.95
2023-02-11T21:26:18.795Z,2.93
2023-02-11T21:28:45.496Z,2.94
2023-02-11T21:31:32.411Z,2.92
2023-02-11T21:33:59.585Z,2.93
2023-02-11T21:36:28.326Z,2.94
2023-02-11T21:38:55.015Z,2.93
2023-02-11T21:41:22.619Z,2.95
2023-02-11T21:43:50.399Z,2.96
2023-02-11T21:46:18.800Z,2.95
2023-02-11T21:48:45.571Z,2.97
2023-02-11T21:51:16.312Z,2.94
2023-02-11T21:53:42.964Z,2.96
2023-02-11T21:56:16.682Z,2.93
2023-02-11T21:58:44.720Z,2.90
2023-02-11T22:01:19.816Z,2.89
2023-02-11T22:03:47.116Z,2.89
2023-02-11T22:06:16.787Z,2.87
2023-02-11T22:08:43.490Z,2.84
2023-02-11T22:11:12.306Z,2.81
2023-02-11T22:13:40.337Z,2.77
2023-02-11T22:16:09.976Z,2.76
2023-02-11T22:18:37.244Z,2.77
2023-02-11T22:21:12.866Z,2.80
2023-02-11T22:23:39.940Z,2.82
2023-02-11T22:26:09.744Z,2.83
2023-02-11T22:28:38.959Z,2.87
2023-02-11T22:31:05.720Z,2.87
2023-02-11T22:33:32.897Z,2.88
2023-02-11T22:36:00.752Z,2.90
2023-02-11T22:38:29.566Z,2.91
2023-02-11T22:40:56.127Z,2.92
2023-02-11T22:43:22.714Z,2.92
2023-02-11T22:45:50.004Z,2.93
2023-02-11T22:48:17.381Z,2.92
2023-02-11T22:50:43.956Z,2.91
2023-02-11T22:53:10.553Z,2.90
2023-02-11T22:55:39.252Z,2.89
2023-02-11T22:58:06.257Z,2.89
2023-02-11T23:00:39.446Z,2.89
2023-02-11T23:03:07.492Z,2.88
2023-02-11T23:05:41.568Z,2.83
2023-02-11T23:08:10.597Z,2.83
2023-02-11T23:10:39.744Z,2.81
2023-02-11T23:13:07.827Z,2.80
2023-02-11T23:15:34.538Z,2.79
2023-02-11T23:18:01.114Z,2.78
2023-02-11T23:20:27.813Z,2.78
2023-02-11T23:22:54.383Z,2.79
2023-02-11T23:25:21.083Z,2.79
2023-02-11T23:27:47.853Z,2.79
2023-02-11T23:30:14.696Z,2.78
2023-02-11T23:32:41.300Z,2.79
2023-02-11T23:35:08.070Z,2.78
2023-02-11T23:37:34.684Z,2.75
2023-02-11T23:40:01.229Z,2.74
2023-02-11T23:42:28.775Z,2.74
2023-02-11T23:44:55.364Z,2.71
2023-02-11T23:47:22.080Z,2.70
2023-02-11T23:49:48.677Z,2.71
2023-02-11T23:52:15.278Z,2.72
2023-02-11T23:54:43.350Z,2.73
2023-02-11T23:57:09.928Z,2.71
2023-02-11T23:59:36.463Z,2.70
